Flight Track Log - Related Links

Times and Time Zones

All times are in EDT time to prevent confusion due to time zone crossing. See the N450S flight status page for this flight to view local times or setup timezone preferences in your user account.

Time Position Orientation Groundspeed Altitude Reporting Facility
EDT Latitude Longitude Course Direction KTS MPH feet Rate Location/Type
Mon 09:02:47 AM 41.5372 -82.7964 42° Northeast 160 184 3,000  Level Cleveland Center
Mon 09:03:49 AM 41.5811 -82.7553 35° Northeast 163 188 4,900 1,790 Climbing Cleveland Center
Mon 09:04:51 AM 41.6169 -82.7139 41° Northeast 163 188 6,700 1,500 Climbing Cleveland Center
Mon 09:05:53 AM 41.6503 -82.6786 38° Northeast 163 188 8,000 629 Climbing Cleveland Center
Mon 09:06:55 AM 41.6958 -82.6297 39° Northeast 205 236 8,000  Level Cleveland Center
Mon 09:07:57 AM 41.7458 -82.5750 39° Northeast 230 265 8,000  Level Cleveland Center
Mon 09:08:00 AM 41.8057 -82.5299 42° Northeast  Level FlightAware Approximate
Mon 09:08:58 AM 41.8047 -82.5125 38° Northeast 229 264 8,000  Level Cleveland Center
Mon 09:10:00 AM 41.8508 -82.4631 39° Northeast 217 250 8,600 484 Climbing Cleveland Center
Mon 09:11:02 AM 41.8944 -82.4158 39° Northeast 208 239 9,000 194 Climbing Cleveland Center
Mon 09:12:04 AM 41.9403 -82.3647 40° Northeast 210 242 9,000  Level Cleveland Center
Mon 09:13:06 AM 41.9886 -82.3128 39° Northeast 218 251 9,000  Level Cleveland Center
Mon 09:14:08 AM 42.0364 -82.2606 39° Northeast 220 253 9,000 629 Level Cleveland Center
Mon 09:15:10 AM 42.0917 -82.2022 38° Northeast 216 249 10,300 1,306 Climbing Cleveland Center
Mon 09:16:12 AM 42.1333 -82.1558 40° Northeast 202 232 11,700 1,306 Climbing Cleveland Center
Mon 09:17:14 AM 42.1778 -82.1075 39° Northeast 202 232 13,000 1,306 Climbing Cleveland Center
Mon 09:18:16 AM 42.2236 -82.0561 40° Northeast 207 238 14,400 1,296 Climbing Cleveland Center
Mon 09:19:19 AM 42.2700 -82.0061 39° Northeast 210 242 15,700 1,355 Climbing Cleveland Center
Mon 09:20:20 AM 42.3256 -81.9433 40° Northeast 217 250 17,200 1,268 Climbing Cleveland Center
Mon 09:21:22 AM 42.3744 -81.8903 39° Northeast 221 254 18,300 1,113 Climbing Cleveland Center
Mon 09:22:24 AM 42.4244 -81.8361 39° Northeast 224 258 19,500 1,161 Climbing Cleveland Center
Mon 09:23:26 AM 42.4736 -81.7811 40° Northeast 227 261 20,700 726 Climbing Cleveland Center
Mon 09:24:28 AM 42.5256 -81.7236 39° Northeast 235 270 21,000 145 Climbing Cleveland Center
Mon 09:25:30 AM 42.5844 -81.6592 39° Northeast 262 302 21,000  Level Cleveland Center
Mon 09:26:32 AM 42.6461 -81.5900 40° Northeast 278 320 21,000  Level Cleveland Center
Mon 09:27:34 AM 42.7089 -81.5192 40° Northeast 284 327 21,000  Level Cleveland Center
Mon 09:29:10 AM 42.8000 -81.3833 48° Northeast 290 334 21,000  Level Toronto Center
Mon 09:30:10 AM 42.8667 -81.3167 36° Northeast 290 334 21,000  Level Toronto Center
Mon 09:31:10 AM 42.9333 -81.2500 36° Northeast 290 334 21,000  Level Toronto Center
Mon 09:32:10 AM 42.9833 -81.1667 51° Northeast 290 334 21,000 -300 Level Toronto Center
Mon 09:33:10 AM 43.0500 -81.1000 36° Northeast 290 334 20,400 -750 Descending Toronto Center
Mon 09:34:10 AM 43.1167 -81.0333 36° Northeast 300 345 19,500 -950 Descending Toronto Center
Mon 09:35:10 AM 43.1833 -80.9667 36° Northeast 300 345 18,500 -1,200 Descending Toronto Center
Mon 09:36:10 AM 43.2333 -80.9000 44° Northeast 300 345 17,100 -1,550 Descending Toronto Center
Mon 09:37:10 AM 43.3167 -80.8000 41° Northeast 300 345 15,400 -1,600 Descending Toronto Center
Mon 09:38:10 AM 43.3833 -80.7333 36° Northeast 290 334 13,900 -1,600 Descending Toronto Center
Mon 09:39:10 AM 43.4333 -80.6667 44° Northeast 280 322 12,200 -1,750 Descending Toronto Center
Mon 09:40:10 AM 43.5000 -80.6000 36° Northeast 270 311 10,400 -1,750 Descending Toronto Center
Mon 09:41:10 AM 43.5500 -80.5333 44° Northeast 260 299 8,700 -1,650 Descending Toronto Center
Mon 09:42:10 AM 43.5833 -80.4333 65° Northeast 260 299 7,100 -850 Descending Toronto Center
Mon 09:43:10 AM 43.6167 -80.3667 55° Northeast 250 288 7,000 -50 Descending Toronto Center
Mon 09:44:10 AM 43.6500 -80.2833 61° Northeast 240 276 7,000  Level Toronto Center
Mon 09:45:10 AM 43.6667 -80.2167 71° East 230 265 7,000 -300 Level Toronto Center
Mon 09:46:10 AM 43.7000 -80.1167 65° Northeast 240 276 6,400 -500 Descending Toronto Center
Mon 09:47:10 AM 43.7333 -80.0333 61° Northeast 240 276 6,000 -300 Descending Toronto Center
Mon 09:48:10 AM 43.7500 -79.9500 74° East 230 265 5,800 -350 Descending Toronto Center
Mon 09:49:10 AM 43.7833 -79.8833 55° Northeast 230 265 5,300 -550 Descending Toronto Center
Mon 09:50:10 AM 43.8167 -79.8000 61° Northeast 230 265 4,700 -600 Descending Toronto Center
Mon 09:51:10 AM 43.8500 -79.7333 55° Northeast 230 265 4,100 -350 Descending Toronto Center
Mon 09:52:10 AM 43.8667 -79.6500 74° East 220 253 4,000 -50 Descending Toronto Center
Mon 09:53:10 AM 43.9000 -79.5833 55° Northeast 210 242 4,000  Level Toronto Center
Mon 09:54:10 AM 43.9333 -79.5167 55° Northeast 210 242 4,000  Level Toronto Center
Mon 09:55:10 AM 43.9667 -79.4500 55° Northeast 200 230 4,000  Level Toronto Center
Mon 09:56:10 AM 43.9667 -79.3833 90° East 200 230 4,000  Level Toronto Center
Mon 09:57:10 AM 43.9833 -79.2833 77° East 200 230 4,000 -50 Level Toronto Center
Mon 09:58:10 AM 43.9333 -79.2333 144° Southeast 200 230 3,900 -500 Descending Toronto Center
Mon 09:59:10 AM 43.8833 -79.2000 154° Southeast 220 253 3,000 -550 Descending Toronto Center
Mon 10:00:10 AM 43.8333 -79.2167 194° South 200 230 2,800 -400 Descending Toronto Center
Mon 10:01:10 AM 43.8167 -79.2833 251° West 170 196 2,200 -650 Descending Toronto Center
Mon 10:02:10 AM 43.8167 -79.3167 270° West 140 161 1,500 -700 Descending Toronto Center

Login

Don't have an account? Register now (free) for customized features, flight alerts, and more!